createdAt,value
2019-05-28T00:02:15.296Z,5.1
2019-05-28T00:07:02.351Z,5.1
2019-05-28T00:11:49.825Z,5.1
2019-05-28T00:16:37.286Z,5.1
2019-05-28T00:21:24.604Z,5.2
2019-05-28T00:26:47.646Z,5.2
2019-05-28T00:31:35.003Z,5.2
2019-05-28T00:36:24.237Z,5.2
2019-05-28T00:41:11.525Z,5.2
2019-05-28T00:45:58.676Z,5.2
2019-05-28T00:50:45.614Z,5.3
2019-05-28T00:55:49.745Z,5.3
2019-05-28T01:00:37.271Z,5.3
2019-05-28T01:05:25.291Z,5.3
2019-05-28T01:10:12.613Z,5.4
2019-05-28T01:14:59.566Z,5.4
2019-05-28T01:19:48.596Z,5.4
2019-05-28T01:25:08.737Z,5.4
2019-05-28T01:29:55.525Z,5.5
2019-05-28T01:34:42.786Z,5.5
2019-05-28T01:39:30.067Z,5.5
2019-05-28T01:44:17.603Z,5.5
2019-05-28T01:51:43.254Z,5.6
2019-05-28T01:56:30.575Z,5.6
2019-05-28T02:01:18.625Z,5.6
2019-05-28T02:06:06.052Z,5.6
2019-05-28T02:15:06.197Z,5.7
2019-05-28T02:19:53.341Z,5.7
2019-05-28T02:24:40.245Z,5.7
2019-05-28T02:33:32.490Z,5.8
2019-05-28T02:38:19.819Z,5.8
2019-05-28T02:43:06.666Z,5.9
2019-05-28T02:51:15.876Z,5.9
2019-05-28T02:56:03.766Z,6
2019-05-28T03:00:52.348Z,6
2019-05-28T03:11:03.195Z,6.1
2019-05-28T03:15:51.855Z,6.2
2019-05-28T03:20:40.028Z,6.2
2019-05-28T03:30:55.269Z,6.3
2019-05-28T03:35:43.259Z,6.3
2019-05-28T03:40:30.086Z,6.4
2019-05-28T03:50:33.760Z,6.5
2019-05-28T03:55:21.822Z,6.5
2019-05-28T04:00:08.929Z,6.6
2019-05-28T04:10:24.906Z,6.7
2019-05-28T04:15:12.101Z,6.7
2019-05-28T04:19:59.069Z,6.8
2019-05-28T04:29:26.756Z,6.9
2019-05-28T04:34:14.122Z,6.9
2019-05-28T04:39:01.466Z,7
2019-05-28T04:48:29.510Z,7.1
2019-05-28T04:53:16.355Z,7.1
2019-05-28T04:58:04.447Z,7.2
2019-05-28T05:08:44.448Z,7.3
2019-05-28T05:13:31.216Z,7.3
2019-05-28T05:18:18.481Z,7.3
2019-05-28T05:28:01.851Z,7.4
2019-05-28T05:32:48.636Z,7.5
2019-05-28T05:37:35.857Z,7.5
2019-05-28T05:46:49.637Z,7.6
2019-05-28T05:51:36.461Z,7.6
2019-05-28T05:56:24.375Z,7.6
2019-05-28T06:06:48.566Z,7.7
2019-05-28T06:11:35.929Z,7.7
2019-05-28T06:16:23.215Z,7.8
2019-05-28T06:21:15.143Z,7.8
2019-05-28T06:27:07.888Z,7.8
2019-05-28T06:31:55.895Z,7.9
2019-05-28T06:36:42.771Z,7.9
2019-05-28T06:47:22.115Z,8
2019-05-28T06:52:11.272Z,8
2019-05-28T06:56:58.676Z,8
2019-05-28T07:06:37.550Z,8
2019-05-28T07:11:24.809Z,8.1
2019-05-28T07:16:11.850Z,8.1
2019-05-28T07:24:37.458Z,8.1
2019-05-28T07:29:26.201Z,8.1
2019-05-28T07:34:29.285Z,8.2
2019-05-28T07:43:35.366Z,8.2
2019-05-28T07:48:22.971Z,8.2
2019-05-28T07:53:10.371Z,8.3
2019-05-28T08:04:15.008Z,8.3
2019-05-28T08:09:01.788Z,8.4
2019-05-28T08:13:52.259Z,8.4
2019-05-28T08:18:39.440Z,8.4
2019-05-28T08:24:47.906Z,8.4
2019-05-28T08:29:34.850Z,8.5
2019-05-28T08:34:21.840Z,8.5
2019-05-28T08:39:10.047Z,8.5
2019-05-28T08:45:46.146Z,8.5
2019-05-28T08:50:35.171Z,8.6
2019-05-28T08:55:23.900Z,8.6
2019-05-28T09:00:10.798Z,8.6
2019-05-28T09:06:44.511Z,8.7
2019-05-28T09:11:32.509Z,8.7
2019-05-28T09:16:20.742Z,8.7
2019-05-28T09:26:21.106Z,8.8
2019-05-28T09:31:08.342Z,8.9
2019-05-28T09:36:07.246Z,8.9
2019-05-28T09:46:02.967Z,9.1
2019-05-28T09:50:51.837Z,9.1
2019-05-28T09:55:39.555Z,9.2
2019-05-28T10:05:22.302Z,9.3
2019-05-28T10:10:10.263Z,9.3
2019-05-28T10:14:57.212Z,9.4
2019-05-28T10:19:43.974Z,9.5
2019-05-28T10:26:04.651Z,9.5
2019-05-28T10:30:52.541Z,9.6
2019-05-28T10:35:39.886Z,9.6
2019-05-28T10:40:27.106Z,9.7
2019-05-28T10:46:19.874Z,9.7
2019-05-28T10:51:07.129Z,9.7
2019-05-28T10:55:54.470Z,9.8
2019-05-28T11:00:41.400Z,9.8
2019-05-28T11:07:54.601Z,9.8
2019-05-28T11:12:41.470Z,9.9
2019-05-28T11:17:29.200Z,9.9
2019-05-28T11:22:16.437Z,9.9
2019-05-28T11:30:20.351Z,9.9
2019-05-28T11:35:07.721Z,9.9
2019-05-28T11:39:54.855Z,9.9
2019-05-28T11:44:42.559Z,9.9
2019-05-28T11:49:29.290Z,9.9
2019-05-28T11:54:48.607Z,9.9
2019-05-28T11:59:35.791Z,9.9
2019-05-28T12:04:22.642Z,10
2019-05-28T12:09:09.428Z,10
2019-05-28T12:14:44.610Z,10
2019-05-28T12:19:31.971Z,10
2019-05-28T12:24:18.713Z,10
2019-05-28T12:29:06.051Z,10
2019-05-28T12:33:53.571Z,10
2019-05-28T12:39:58.413Z,10
2019-05-28T12:44:46.086Z,10
2019-05-28T12:49:33.203Z,10.1
2019-05-28T12:54:21.159Z,10.1
2019-05-28T12:59:08.304Z,10.1
2019-05-28T13:06:52.174Z,10.1
2019-05-28T13:11:39.450Z,10.1
2019-05-28T13:16:27.133Z,10.1
2019-05-28T13:21:14.287Z,10.1
2019-05-28T13:28:20.128Z,10.1
2019-05-28T13:33:07.775Z,10.1
2019-05-28T13:37:55.007Z,10.1
2019-05-28T13:42:41.982Z,10.1
2019-05-28T13:47:45.228Z,10.1
2019-05-28T13:52:32.628Z,10.1
2019-05-28T13:57:21.282Z,10.1
2019-05-28T14:02:08.471Z,10.1
2019-05-28T14:09:50.336Z,10.2
2019-05-28T14:14:37.223Z,10.2
2019-05-28T14:19:24.584Z,10.2
2019-05-28T14:24:12.437Z,10.2
2019-05-28T14:31:03.970Z,10.2
2019-05-28T14:35:50.974Z,10.2
2019-05-28T14:40:37.869Z,10.2
2019-05-28T14:45:25.847Z,10.2
2019-05-28T14:51:47.150Z,10.2
2019-05-28T14:56:33.979Z,10.2
2019-05-28T15:01:21.373Z,10.2
2019-05-28T15:06:08.661Z,10.2
2019-05-28T15:13:22.210Z,10.2
2019-05-28T15:18:09.354Z,10.2
2019-05-28T15:22:56.886Z,10.2
2019-05-28T15:27:44.178Z,10.2
2019-05-28T15:34:36.725Z,10.2
2019-05-28T15:39:39.125Z,10.2
2019-05-28T15:44:28.215Z,10.2
2019-05-28T15:54:01.196Z,10.2
2019-05-28T15:58:48.539Z,10.2
2019-05-28T16:03:35.705Z,10.2
2019-05-28T16:08:22.958Z,10.2
2019-05-28T16:13:26.368Z,10.2
2019-05-28T16:18:13.269Z,10.2
2019-05-28T16:23:00.105Z,10.2
2019-05-28T16:31:25.062Z,10.3
2019-05-28T16:36:11.812Z,10.3
2019-05-28T16:40:58.603Z,10.3
2019-05-28T16:50:41.537Z,10.3
2019-05-28T16:55:28.820Z,10.3
2019-05-28T17:00:15.723Z,10.3
2019-05-28T17:09:45.969Z,10.3
2019-05-28T17:14:33.187Z,10.3
2019-05-28T17:19:20.860Z,10.3
2019-05-28T17:28:50.111Z,10.3
2019-05-28T17:33:37.051Z,10.3
2019-05-28T17:38:24.122Z,10.3
2019-05-28T17:46:36.904Z,10.3
2019-05-28T17:51:23.704Z,10.3
2019-05-28T17:56:10.854Z,10.3
2019-05-28T18:05:26.206Z,10.4
2019-05-28T18:10:13.666Z,10.4
2019-05-28T18:15:01.961Z,10.4
2019-05-28T18:24:30.195Z,10.4
2019-05-28T18:29:17.640Z,10.4
2019-05-28T18:34:05.057Z,10.4
2019-05-28T18:43:41.678Z,10.4
2019-05-28T18:48:28.792Z,10.4
2019-05-28T18:53:15.670Z,10.4
2019-05-28T19:02:02.476Z,10.3
2019-05-28T19:06:49.720Z,10.3
2019-05-28T19:11:38.045Z,10.3
2019-05-28T19:21:05.706Z,10.3
2019-05-28T19:25:53.034Z,10.3
2019-05-28T19:30:39.730Z,10.3
2019-05-28T19:40:51.983Z,10.3
2019-05-28T19:45:39.348Z,10.3
2019-05-28T19:50:26.650Z,10.3
2019-05-28T19:55:13.438Z,10.3
2019-05-28T20:01:03.902Z,10.3
2019-05-28T20:05:50.818Z,10.3
2019-05-28T20:10:37.914Z,10.3
2019-05-28T20:20:47.880Z,10.3
2019-05-28T20:25:34.649Z,10.3
2019-05-28T20:30:21.956Z,10.3
2019-05-28T20:35:09.645Z,10.3
2019-05-28T20:40:59.959Z,10.3
2019-05-28T20:45:47.363Z,10.3
2019-05-28T20:50:34.321Z,10.3
2019-05-28T20:55:21.214Z,10.3
2019-05-28T21:03:31.602Z,10.3
2019-05-28T21:08:19.205Z,10.3
2019-05-28T21:13:05.996Z,10.2
2019-05-28T21:17:53.516Z,10.2
2019-05-28T21:26:08.516Z,10.2
2019-05-28T21:30:55.217Z,10.2
2019-05-28T21:35:41.966Z,10.2
2019-05-28T21:40:28.959Z,10.2
2019-05-28T21:48:44.534Z,10.2
2019-05-28T21:53:32.991Z,10.2
2019-05-28T21:58:20.255Z,10.2
2019-05-28T22:03:07.320Z,10.2
2019-05-28T22:09:13.226Z,10.2
2019-05-28T22:14:02.149Z,10.2
2019-05-28T22:18:49.587Z,10.2
2019-05-28T22:23:36.327Z,10.2
2019-05-28T22:29:58.561Z,10.2
2019-05-28T22:34:45.788Z,10.2
2019-05-28T22:39:33.378Z,10.2
2019-05-28T22:44:20.548Z,10.1
2019-05-28T22:50:22.114Z,10.1
2019-05-28T22:55:10.073Z,10.1
2019-05-28T22:59:58.383Z,10.1
2019-05-28T23:04:45.142Z,10.1
2019-05-28T23:12:41.636Z,10.1
2019-05-28T23:17:28.478Z,10.1
2019-05-28T23:22:16.610Z,10
2019-05-28T23:27:05.435Z,10
2019-05-28T23:34:17.846Z,10
2019-05-28T23:39:05.336Z,10
2019-05-28T23:44:01.427Z,9.9
2019-05-28T23:48:49.394Z,9.9
2019-05-28T23:53:36.405Z,9.9
